Аэропорт: Чертовицкое. Воронеж

ICAO: UUOO

METAR:
2019-11-21 09:00:00
UUOO 210900Z 11005MPS 9000 NSC M06/M14 Q1048 R12/090070 NOSIG RMK QFE771
METAR:
2019-11-21 07:59:00
TAF UUOO 210759Z 2109/2118 10006MPS CAVOK